KDHN/DHN METAR and TAF weather

Enter ICAO airport designator
Station Type Date Time Source
KDHN METAR 2019/02/23 16:53 UTC NOAA

KDHN 231653Z 18010KT 10SM FEW100 27/17 A3012 RMK AO2 SLP193 T02720167


Station Type Date Time Source
KDHN Decoded METAR 2019/02/23 16:53 UTC NOAA

DOTHAN AIRPORT, AL, United States (KDHN) 31-19N 085-27W 113M
Feb 23, 2019 - 11:53 AM EST / 2019.02.23 1653 UTC
Wind: from the S (180 degrees) at 12 MPH (10 KT):0
Visibility: 10 mile(s):0
Sky conditions: mostly clear
Temperature: 81.0 F (27.2 C)
Dew Point: 62.1 F (16.7 C)
Relative Humidity: 52%
Pressure (altimeter): 30.12 in. Hg (1019 hPa)
ob: KDHN 231653Z 18010KT 10SM FEW100 27/17 A3012 RMK AO2 SLP193 T02720167
cycle: 17

Station Type Date Time Source
KDHN TAF 2019/02/23 12:24 UTC NOAA

TAF KDHN 231122Z 2312/2412 14005KT 5SM BR OVC006
FM231500 13005KT P6SM BKN015
FM231800 18014G20KT P6SM SCT025 BKN045
FM240000 19009KT P6SM BKN050
FM240700 21010KT P6SM BKN015


Example: see airport list